createdAt,value
2018-07-31T00:01:29.484Z,78.47
2018-07-31T00:03:58.131Z,78.10
2018-07-31T00:06:26.780Z,78.15
2018-07-31T00:08:56.415Z,78.19
2018-07-31T00:11:25.260Z,77.90
2018-07-31T00:13:54.094Z,77.88
2018-07-31T00:16:22.694Z,78.05
2018-07-31T00:18:51.383Z,78.56
2018-07-31T00:21:20.082Z,78.88
2018-07-31T00:23:48.755Z,78.79
2018-07-31T00:26:17.424Z,79.03
2018-07-31T00:28:46.149Z,79.01
2018-07-31T00:31:14.905Z,79.41
2018-07-31T00:33:43.891Z,79.60
2018-07-31T00:36:12.520Z,79.24
2018-07-31T00:38:41.159Z,78.98
2018-07-31T00:41:10.402Z,78.68
2018-07-31T00:43:39.111Z,78.46
2018-07-31T00:46:07.806Z,77.63
2018-07-31T00:48:36.480Z,77.05
2018-07-31T00:51:05.131Z,77.05
2018-07-31T00:53:33.762Z,77.87
2018-07-31T00:56:02.483Z,77.54
2018-07-31T00:58:31.152Z,77.01
2018-07-31T01:00:59.850Z,77.07
2018-07-31T01:03:28.539Z,77.25
2018-07-31T01:05:57.178Z,77.19
2018-07-31T01:08:25.840Z,77.53
2018-07-31T01:10:54.488Z,77.34
2018-07-31T01:13:23.174Z,77.25
2018-07-31T01:15:51.893Z,77.11
2018-07-31T01:18:20.520Z,77.29
2018-07-31T01:20:51.518Z,77.19
2018-07-31T01:23:20.155Z,77.06
2018-07-31T01:25:49.242Z,76.74
2018-07-31T01:28:17.916Z,76.68
2018-07-31T01:30:46.581Z,76.45
2018-07-31T01:33:15.201Z,76.10
2018-07-31T01:35:44.079Z,75.91
2018-07-31T01:38:12.842Z,76.68
2018-07-31T01:40:41.493Z,75.90
2018-07-31T01:43:10.139Z,75.59
2018-07-31T01:45:38.799Z,76.18
2018-07-31T01:48:07.437Z,76.05
2018-07-31T01:50:36.107Z,76.04
2018-07-31T01:53:04.759Z,76.46
2018-07-31T01:55:33.504Z,76.22
2018-07-31T01:58:02.222Z,76.16
2018-07-31T02:00:30.880Z,76.12
2018-07-31T02:02:59.515Z,76.28
2018-07-31T02:05:28.138Z,76.33
2018-07-31T02:07:56.842Z,76.45
2018-07-31T02:10:25.491Z,76.19
2018-07-31T02:12:54.198Z,76.01
2018-07-31T02:15:22.891Z,76.15
2018-07-31T02:17:51.497Z,76.10
2018-07-31T02:20:20.163Z,76.40
2018-07-31T02:22:48.782Z,76.38
2018-07-31T02:25:17.434Z,76.43
2018-07-31T02:27:46.166Z,76.23
2018-07-31T02:30:20.879Z,76.06
2018-07-31T02:32:50.345Z,76.09
2018-07-31T02:35:19.070Z,76.27
2018-07-31T02:37:47.746Z,76.59
2018-07-31T02:40:16.466Z,76.99
2018-07-31T02:42:45.182Z,77.82
2018-07-31T02:45:14.727Z,78.10
2018-07-31T02:47:44.295Z,78.19
2018-07-31T02:50:12.994Z,78.69
2018-07-31T02:52:41.871Z,79.04
2018-07-31T02:55:11.435Z,79.27
2018-07-31T02:57:40.616Z,79.95
2018-07-31T03:00:10.554Z,80.50
2018-07-31T03:02:39.314Z,81.16
2018-07-31T03:05:10.495Z,81.56
2018-07-31T03:07:39.200Z,81.43
2018-07-31T03:10:09.327Z,81.43
2018-07-31T03:12:37.946Z,81.92
2018-07-31T03:15:07.862Z,81.69
2018-07-31T03:17:36.534Z,81.47
2018-07-31T03:20:05.538Z,81.56
2018-07-31T03:22:34.204Z,81.26
2018-07-31T03:25:03.254Z,81.36
2018-07-31T03:27:32.050Z,80.97
2018-07-31T03:30:00.670Z,80.80
2018-07-31T03:32:29.339Z,81.09
2018-07-31T03:34:57.988Z,81.15
2018-07-31T03:37:26.654Z,81.02
2018-07-31T03:39:55.538Z,80.98
2018-07-31T03:42:24.206Z,81.16
2018-07-31T03:44:52.821Z,81.14
2018-07-31T03:47:21.565Z,81.63
2018-07-31T03:49:50.283Z,81.64
2018-07-31T03:52:18.922Z,81.83
2018-07-31T03:54:47.561Z,81.87
2018-07-31T03:57:16.205Z,80.93
2018-07-31T03:59:44.894Z,81.03
2018-07-31T04:02:13.623Z,81.34
2018-07-31T04:04:42.305Z,81.19
2018-07-31T04:07:10.939Z,80.81
2018-07-31T04:09:39.749Z,80.84
2018-07-31T04:12:08.475Z,81.01
2018-07-31T04:14:37.090Z,80.76
2018-07-31T04:17:05.784Z,80.44
2018-07-31T04:19:34.399Z,80.37
2018-07-31T04:22:03.097Z,80.24
2018-07-31T04:24:31.757Z,80.04
2018-07-31T04:27:00.466Z,79.49
2018-07-31T04:29:29.235Z,79.40
2018-07-31T04:31:57.988Z,79.46
2018-07-31T04:34:26.674Z,79.16
2018-07-31T04:36:55.390Z,79.00
2018-07-31T04:39:24.134Z,78.90
2018-07-31T04:41:52.787Z,78.75
2018-07-31T04:44:21.476Z,79.15
2018-07-31T04:46:50.143Z,79.18
2018-07-31T04:49:18.835Z,79.39
2018-07-31T04:51:47.526Z,79.31
2018-07-31T04:54:16.255Z,79.46
2018-07-31T04:56:45.243Z,79.76
2018-07-31T04:59:14.073Z,79.44
2018-07-31T05:01:42.814Z,79.18
2018-07-31T05:04:11.435Z,78.94
2018-07-31T05:06:40.116Z,78.93
2018-07-31T05:09:10.943Z,78.66
2018-07-31T05:11:39.773Z,78.80
2018-07-31T05:14:08.785Z,78.58
2018-07-31T05:16:37.594Z,78.41
2018-07-31T05:19:06.490Z,78.22
2018-07-31T05:21:35.279Z,78.16
2018-07-31T05:24:03.996Z,77.00
2018-07-31T05:26:32.650Z,77.27
2018-07-31T05:29:01.256Z,77.08
2018-07-31T05:31:29.893Z,76.97
2018-07-31T05:33:58.650Z,77.25
2018-07-31T05:36:27.295Z,77.96
2018-07-31T05:38:56.006Z,78.08
2018-07-31T05:41:24.706Z,78.66
2018-07-31T05:43:53.464Z,78.86
2018-07-31T05:46:22.137Z,79.05
2018-07-31T05:48:50.808Z,79.12
2018-07-31T05:51:19.557Z,79.42
2018-07-31T05:53:48.372Z,79.21
2018-07-31T05:56:17.202Z,79.38
2018-07-31T05:58:46.778Z,79.47
2018-07-31T06:01:15.428Z,79.77
2018-07-31T06:03:44.070Z,79.27
2018-07-31T06:06:12.820Z,78.98
2018-07-31T06:08:41.478Z,78.74
2018-07-31T06:11:10.149Z,79.05
2018-07-31T06:13:38.856Z,78.65
2018-07-31T06:16:07.605Z,78.64
2018-07-31T06:18:36.641Z,77.92
2018-07-31T06:21:05.356Z,77.74
2018-07-31T06:23:34.036Z,77.38
2018-07-31T06:26:02.758Z,77.87
2018-07-31T06:28:31.581Z,77.32
2018-07-31T06:31:00.276Z,77.31
2018-07-31T06:33:29.065Z,77.12
2018-07-31T06:35:57.817Z,76.52
2018-07-31T06:38:26.462Z,76.55
2018-07-31T06:40:55.109Z,76.54
2018-07-31T06:43:23.994Z,74.64
2018-07-31T06:45:52.671Z,74.09
2018-07-31T06:48:21.629Z,75.46
2018-07-31T06:50:50.313Z,74.81
2018-07-31T06:53:18.964Z,74.95
2018-07-31T06:55:47.651Z,73.61
2018-07-31T06:58:16.553Z,73.94
2018-07-31T07:00:45.178Z,74.17
2018-07-31T07:03:13.867Z,73.04
2018-07-31T07:05:42.553Z,73.57
2018-07-31T07:08:11.287Z,71.60
2018-07-31T07:10:40.247Z,71.69
2018-07-31T07:13:08.926Z,71.66
2018-07-31T07:15:37.603Z,72.11
2018-07-31T07:18:06.463Z,71.89
2018-07-31T07:20:35.123Z,71.16
2018-07-31T07:23:03.792Z,69.98
2018-07-31T07:25:32.507Z,69.90
2018-07-31T07:28:01.180Z,69.03
2018-07-31T07:30:29.810Z,69.93
2018-07-31T07:32:58.480Z,67.57
2018-07-31T07:35:27.316Z,66.82
2018-07-31T07:37:56.090Z,66.61
2018-07-31T07:40:24.847Z,66.21
2018-07-31T07:42:53.467Z,66.56
2018-07-31T07:45:22.139Z,65.33
2018-07-31T07:47:50.827Z,65.31
2018-07-31T07:50:19.536Z,64.53
2018-07-31T07:52:48.574Z,64.62
2018-07-31T07:55:17.229Z,64.78
2018-07-31T07:57:45.869Z,64.46
2018-07-31T08:00:14.537Z,63.52
2018-07-31T08:02:43.187Z,62.92
2018-07-31T08:05:11.882Z,62.68
2018-07-31T08:07:41.252Z,62.89
2018-07-31T08:10:09.955Z,62.90
2018-07-31T08:12:38.639Z,63.01
2018-07-31T08:15:07.336Z,63.31
2018-07-31T08:17:35.987Z,63.01
2018-07-31T08:20:05.683Z,62.76
2018-07-31T08:22:34.324Z,62.62
2018-07-31T08:25:03.115Z,61.79
2018-07-31T08:27:31.778Z,62.41
2018-07-31T08:30:00.475Z,62.68
2018-07-31T08:32:29.126Z,61.63
2018-07-31T08:34:57.895Z,61.00
2018-07-31T08:37:26.611Z,61.33
2018-07-31T08:39:55.373Z,60.78
2018-07-31T08:42:24.870Z,60.52
2018-07-31T08:44:53.527Z,59.30
2018-07-31T08:47:22.281Z,59.63
2018-07-31T08:49:51.019Z,60.66
2018-07-31T08:52:19.778Z,58.46
2018-07-31T08:54:49.540Z,59.45
2018-07-31T08:57:18.174Z,58.92
2018-07-31T08:59:46.858Z,59.10
2018-07-31T09:02:15.508Z,59.07
2018-07-31T09:04:44.173Z,60.88
2018-07-31T09:07:12.777Z,57.98
2018-07-31T09:09:41.541Z,57.24
2018-07-31T09:12:10.210Z,57.41
2018-07-31T09:14:38.859Z,58.04
2018-07-31T09:17:07.581Z,58.33
2018-07-31T09:19:36.241Z,58.57
2018-07-31T09:22:04.898Z,58.36
2018-07-31T09:24:33.643Z,57.37
2018-07-31T09:27:02.293Z,57.28
2018-07-31T09:29:30.974Z,57.46
2018-07-31T09:31:59.631Z,58.05
2018-07-31T09:34:28.423Z,58.41
2018-07-31T09:36:57.137Z,57.15
2018-07-31T09:39:25.819Z,57.34
2018-07-31T09:41:54.447Z,57.72
2018-07-31T09:44:23.167Z,57.34
2018-07-31T09:46:51.879Z,58.84
2018-07-31T09:49:20.512Z,58.32
2018-07-31T09:51:49.218Z,57.34
2018-07-31T09:54:17.893Z,57.21
2018-07-31T09:56:46.547Z,55.92
2018-07-31T09:59:15.276Z,56.59
2018-07-31T10:01:43.959Z,57.66
2018-07-31T10:04:12.622Z,57.96
2018-07-31T10:06:41.239Z,56.01
2018-07-31T10:09:10.754Z,56.86
2018-07-31T10:11:39.416Z,55.58
2018-07-31T10:14:08.082Z,55.74
2018-07-31T10:16:36.806Z,56.31
2018-07-31T10:19:05.450Z,57.06
2018-07-31T10:21:34.100Z,57.69
2018-07-31T10:24:02.800Z,55.94
2018-07-31T10:26:31.717Z,54.94
2018-07-31T10:29:00.362Z,56.40
2018-07-31T10:31:29.361Z,54.34
2018-07-31T10:33:57.974Z,55.19
2018-07-31T10:36:26.781Z,54.56
2018-07-31T10:38:55.461Z,53.87
2018-07-31T10:41:24.119Z,53.99
2018-07-31T10:43:52.837Z,52.75
2018-07-31T10:46:21.454Z,54.50
2018-07-31T10:48:50.195Z,53.54
2018-07-31T10:51:18.841Z,54.03
2018-07-31T10:53:47.497Z,53.48
2018-07-31T10:56:16.126Z,53.05
2018-07-31T10:58:44.875Z,53.99
2018-07-31T11:01:13.455Z,53.74
2018-07-31T11:03:42.120Z,54.32
2018-07-31T11:06:10.782Z,50.29
2018-07-31T11:08:39.437Z,49.88
2018-07-31T11:11:08.126Z,47.93
2018-07-31T11:13:36.878Z,50.70
2018-07-31T11:16:05.766Z,51.15
2018-07-31T11:18:34.422Z,50.27
2018-07-31T11:21:03.198Z,50.68
2018-07-31T11:23:31.819Z,51.31
2018-07-31T11:26:00.464Z,51.82
2018-07-31T11:28:29.080Z,53.74
2018-07-31T11:30:57.717Z,54.29
2018-07-31T11:33:26.376Z,54.47
2018-07-31T11:35:55.187Z,53.45
2018-07-31T11:38:23.894Z,53.51
2018-07-31T11:40:52.597Z,52.74
2018-07-31T11:43:21.230Z,53.60
2018-07-31T11:45:49.904Z,53.35
2018-07-31T11:48:18.609Z,52.88
2018-07-31T11:50:47.477Z,51.91
2018-07-31T11:53:16.179Z,52.24
2018-07-31T11:55:44.808Z,50.24
2018-07-31T11:58:13.529Z,51.46
2018-07-31T12:00:42.274Z,50.41
2018-07-31T12:03:10.945Z,48.34
2018-07-31T12:05:39.632Z,47.76
2018-07-31T12:08:08.292Z,44.87
2018-07-31T12:10:37.012Z,44.03
2018-07-31T12:13:05.709Z,42.56
2018-07-31T12:15:34.388Z,42.71
2018-07-31T12:18:03.274Z,43.64
2018-07-31T12:20:31.935Z,43.21
2018-07-31T12:23:00.623Z,43.91
2018-07-31T12:25:29.249Z,44.49
2018-07-31T12:28:01.662Z,44.65
2018-07-31T12:30:30.323Z,46.91
2018-07-31T12:32:59.045Z,47.85
2018-07-31T12:35:27.877Z,48.80
2018-07-31T12:37:56.537Z,49.60
2018-07-31T12:40:25.209Z,50.59
2018-07-31T12:42:53.833Z,49.79
2018-07-31T12:45:22.521Z,50.27
2018-07-31T12:47:51.116Z,47.62
2018-07-31T12:50:19.742Z,49.36
2018-07-31T12:52:48.401Z,50.27
2018-07-31T12:55:17.022Z,47.91
2018-07-31T12:57:45.658Z,49.15
2018-07-31T13:00:14.303Z,50.81
2018-07-31T13:02:42.941Z,51.11
2018-07-31T13:05:11.634Z,53.00
2018-07-31T13:07:40.281Z,55.50
2018-07-31T13:10:08.973Z,56.64
2018-07-31T13:12:37.601Z,57.98
2018-07-31T13:15:06.311Z,60.59
2018-07-31T13:17:35.126Z,61.72
2018-07-31T13:20:03.863Z,61.44
2018-07-31T13:22:32.526Z,61.35
2018-07-31T13:25:01.215Z,61.48
2018-07-31T13:27:29.899Z,61.77
2018-07-31T13:29:58.653Z,62.97
2018-07-31T13:32:27.311Z,65.72
2018-07-31T13:34:55.966Z,66.50
2018-07-31T13:37:24.639Z,69.45
2018-07-31T13:39:53.257Z,70.67
2018-07-31T13:42:22.003Z,70.52
2018-07-31T13:44:50.700Z,70.70
2018-07-31T13:47:19.434Z,69.43
2018-07-31T13:49:48.108Z,69.04
2018-07-31T13:52:16.793Z,69.70
2018-07-31T13:54:45.434Z,67.76
2018-07-31T13:57:14.120Z,67.12
2018-07-31T13:59:42.773Z,66.54
2018-07-31T14:02:11.443Z,65.12
2018-07-31T14:04:40.068Z,64.97
2018-07-31T14:07:08.739Z,64.12
2018-07-31T14:09:37.406Z,63.75
2018-07-31T14:12:06.107Z,61.99
2018-07-31T14:14:34.801Z,60.20
2018-07-31T14:17:03.438Z,59.60
2018-07-31T14:19:32.117Z,58.94
2018-07-31T14:22:00.804Z,59.58
2018-07-31T14:24:29.466Z,61.25
2018-07-31T14:26:58.152Z,60.66
2018-07-31T14:29:26.795Z,59.98
2018-07-31T14:31:55.473Z,59.40
2018-07-31T14:34:24.121Z,59.41
2018-07-31T14:36:52.781Z,61.59
2018-07-31T14:39:21.404Z,63.18
2018-07-31T14:41:50.282Z,61.46
2018-07-31T14:44:18.926Z,62.66
2018-07-31T14:46:47.670Z,62.29
2018-07-31T14:49:16.327Z,62.36
2018-07-31T14:51:44.932Z,63.12
2018-07-31T14:54:13.616Z,64.59
2018-07-31T14:56:42.290Z,63.63
2018-07-31T14:59:11.210Z,63.97
2018-07-31T15:01:39.930Z,64.41
2018-07-31T15:04:08.590Z,64.10
2018-07-31T15:06:37.237Z,63.42
2018-07-31T15:09:08.791Z,66.26
2018-07-31T15:11:37.482Z,66.02
2018-07-31T15:14:06.248Z,65.19
2018-07-31T15:16:35.380Z,68.57
2018-07-31T15:19:04.030Z,66.97
2018-07-31T15:21:32.665Z,66.35
2018-07-31T15:24:01.365Z,65.89
2018-07-31T15:26:30.077Z,64.56
2018-07-31T15:28:58.754Z,65.09
2018-07-31T15:31:27.493Z,66.22
2018-07-31T15:33:56.133Z,65.82
2018-07-31T15:36:24.778Z,67.30
2018-07-31T15:38:53.451Z,66.24
2018-07-31T15:41:22.124Z,65.88
2018-07-31T15:43:50.787Z,65.00
2018-07-31T15:46:19.436Z,64.67
2018-07-31T15:48:48.073Z,61.60
2018-07-31T15:51:16.737Z,60.04
2018-07-31T15:53:45.378Z,60.85
2018-07-31T15:56:13.994Z,61.65
2018-07-31T15:58:42.650Z,60.90
2018-07-31T16:01:11.340Z,60.82
2018-07-31T16:03:40.584Z,58.15
2018-07-31T16:06:09.268Z,55.26
2018-07-31T16:08:37.929Z,57.23
2018-07-31T16:11:06.656Z,57.71
2018-07-31T16:13:35.422Z,59.08
2018-07-31T16:16:04.130Z,59.97
2018-07-31T16:18:32.777Z,61.53
2018-07-31T16:21:01.439Z,57.47
2018-07-31T16:23:30.189Z,60.09
2018-07-31T16:25:59.342Z,54.17
2018-07-31T16:28:28.025Z,54.52
2018-07-31T16:30:56.668Z,55.88
2018-07-31T16:33:25.394Z,55.40
2018-07-31T16:35:54.426Z,56.56
2018-07-31T16:38:23.480Z,57.38
2018-07-31T16:40:52.179Z,53.47
2018-07-31T16:43:20.843Z,52.52
2018-07-31T16:45:49.465Z,54.56
2018-07-31T16:48:18.162Z,54.65
2018-07-31T16:50:46.854Z,58.82
2018-07-31T16:53:15.572Z,57.72
2018-07-31T16:55:44.262Z,57.58
2018-07-31T16:58:12.993Z,58.03
2018-07-31T17:00:41.651Z,55.10
2018-07-31T17:03:10.276Z,53.48
2018-07-31T17:05:38.910Z,56.72
2018-07-31T17:08:07.582Z,60.47
2018-07-31T17:10:36.201Z,60.22
2018-07-31T17:13:04.952Z,59.54
2018-07-31T17:15:34.237Z,60.80
2018-07-31T17:18:02.860Z,62.05
2018-07-31T17:20:31.562Z,62.90
2018-07-31T17:23:00.219Z,63.09
2018-07-31T17:25:28.910Z,64.08
2018-07-31T17:27:57.585Z,65.29
2018-07-31T17:30:26.272Z,66.47
2018-07-31T17:32:54.949Z,66.76
2018-07-31T17:35:23.631Z,68.42
2018-07-31T17:37:52.954Z,69.22
2018-07-31T17:40:21.950Z,69.38
2018-07-31T17:42:50.614Z,68.87
2018-07-31T17:45:19.217Z,69.59
2018-07-31T17:47:47.845Z,70.12
2018-07-31T17:50:16.533Z,71.43
2018-07-31T17:52:45.324Z,71.68
2018-07-31T17:55:13.911Z,71.42
2018-07-31T17:57:42.538Z,71.39
2018-07-31T18:00:11.215Z,71.71
2018-07-31T18:02:39.877Z,71.29
2018-07-31T18:05:08.536Z,69.55
2018-07-31T18:07:37.226Z,72.58
2018-07-31T18:10:05.957Z,71.50
2018-07-31T18:12:34.681Z,69.46
2018-07-31T18:15:03.318Z,70.22
2018-07-31T18:17:32.110Z,71.78
2018-07-31T18:20:00.807Z,71.64
2018-07-31T18:22:31.042Z,73.03
2018-07-31T18:24:59.691Z,73.16
2018-07-31T18:27:28.487Z,72.96
2018-07-31T18:29:57.210Z,73.77
2018-07-31T18:32:25.902Z,73.73
2018-07-31T18:34:54.613Z,73.33
2018-07-31T18:37:23.358Z,72.12
2018-07-31T18:39:52.267Z,72.32
2018-07-31T18:42:21.051Z,72.26
2018-07-31T18:44:50.996Z,73.31
2018-07-31T18:47:19.677Z,73.16
2018-07-31T18:51:17.430Z,74.03
2018-07-31T18:53:46.086Z,74.97
2018-07-31T18:56:14.725Z,74.54
2018-07-31T18:58:43.454Z,74.73
2018-07-31T19:01:12.388Z,73.98
2018-07-31T19:03:41.187Z,72.86
2018-07-31T19:06:09.914Z,73.50
2018-07-31T19:08:38.824Z,73.81
2018-07-31T19:11:08.763Z,72.90
2018-07-31T19:13:37.476Z,73.51
2018-07-31T19:16:06.285Z,72.68
2018-07-31T19:18:35.105Z,72.34
2018-07-31T19:21:03.852Z,72.56
2018-07-31T19:23:32.673Z,73.02
2018-07-31T19:26:01.712Z,73.30
2018-07-31T19:28:30.521Z,73.61
2018-07-31T19:30:59.633Z,74.04
2018-07-31T19:33:28.548Z,73.70
2018-07-31T19:35:57.294Z,74.34
2018-07-31T19:38:26.038Z,74.54
2018-07-31T19:40:56.113Z,73.56
2018-07-31T19:43:25.005Z,74.37
2018-07-31T19:45:54.340Z,74.00
2018-07-31T19:48:23.182Z,73.53
2018-07-31T19:50:51.926Z,73.77
2018-07-31T19:53:20.693Z,73.88
2018-07-31T19:55:49.429Z,74.45
2018-07-31T19:58:18.201Z,74.20
2018-07-31T20:00:47.209Z,74.37
2018-07-31T20:03:16.478Z,74.78
2018-07-31T20:05:45.210Z,75.00
2018-07-31T20:08:14.003Z,75.28
2018-07-31T20:10:42.639Z,75.58
2018-07-31T20:13:11.302Z,75.56
2018-07-31T20:15:39.944Z,75.93
2018-07-31T20:18:08.785Z,76.30
2018-07-31T20:20:37.464Z,76.53
2018-07-31T20:23:06.210Z,75.78
2018-07-31T20:25:34.861Z,76.13
2018-07-31T20:28:03.755Z,76.24
2018-07-31T20:30:32.482Z,76.42
2018-07-31T20:34:04.422Z,75.85
2018-07-31T20:36:33.848Z,76.54
2018-07-31T20:39:02.623Z,77.43
2018-07-31T20:41:33.916Z,76.53
2018-07-31T20:44:02.703Z,76.46
2018-07-31T20:46:31.507Z,76.73
2018-07-31T20:49:00.173Z,77.29
2018-07-31T20:51:28.877Z,77.06
2018-07-31T20:53:57.607Z,77.46
2018-07-31T20:56:26.425Z,77.48
2018-07-31T20:58:55.110Z,78.97
2018-07-31T21:01:23.843Z,78.91
2018-07-31T21:03:52.525Z,78.33
2018-07-31T21:06:21.354Z,78.42
2018-07-31T21:08:50.547Z,78.42
2018-07-31T21:11:19.208Z,78.50
2018-07-31T21:13:48.042Z,78.64
2018-07-31T21:16:16.829Z,79.19
2018-07-31T21:18:45.761Z,79.08
2018-07-31T21:21:14.439Z,78.79
2018-07-31T21:23:43.108Z,79.74
2018-07-31T21:26:11.811Z,79.25
2018-07-31T21:28:40.505Z,79.33
2018-07-31T21:31:09.226Z,79.04
2018-07-31T21:33:37.939Z,79.38
2018-07-31T21:36:06.823Z,79.09
2018-07-31T21:38:35.475Z,78.97
2018-07-31T21:41:04.150Z,80.08
2018-07-31T21:43:32.820Z,80.45
2018-07-31T21:46:01.543Z,80.52
2018-07-31T21:48:30.200Z,80.53
2018-07-31T21:50:58.917Z,80.46
2018-07-31T21:53:27.745Z,80.44
2018-07-31T21:55:56.445Z,80.69
2018-07-31T21:58:25.112Z,81.02
2018-07-31T22:00:59.080Z,81.78
2018-07-31T22:03:27.905Z,82.47
2018-07-31T22:05:56.694Z,82.50
2018-07-31T22:08:25.433Z,82.23
2018-07-31T22:10:54.183Z,82.35
2018-07-31T22:13:22.899Z,82.36
2018-07-31T22:15:51.575Z,81.85
2018-07-31T22:18:20.262Z,81.80
2018-07-31T22:20:49.051Z,81.36
2018-07-31T22:23:17.794Z,81.06
2018-07-31T22:25:46.451Z,80.79
2018-07-31T22:28:15.170Z,80.91
2018-07-31T22:30:43.860Z,80.86
2018-07-31T22:33:12.710Z,81.30
2018-07-31T22:35:41.399Z,81.37
2018-07-31T22:38:10.220Z,81.10
2018-07-31T22:40:38.943Z,81.22
2018-07-31T22:43:07.657Z,80.77
2018-07-31T22:45:36.319Z,80.39
2018-07-31T22:48:05.099Z,80.14
2018-07-31T22:50:33.747Z,79.86
2018-07-31T22:53:02.405Z,79.93
2018-07-31T22:55:31.259Z,79.94
2018-07-31T22:58:00.018Z,79.56
2018-07-31T23:00:28.998Z,80.31
2018-07-31T23:02:57.643Z,80.43
2018-07-31T23:05:26.311Z,80.46
2018-07-31T23:07:55.036Z,80.21
2018-07-31T23:10:23.709Z,80.09
2018-07-31T23:12:52.385Z,79.92
2018-07-31T23:15:21.058Z,79.71
2018-07-31T23:17:49.815Z,79.45
2018-07-31T23:20:18.514Z,79.58
2018-07-31T23:22:48.419Z,79.89
2018-07-31T23:25:17.096Z,79.79
2018-07-31T23:27:45.798Z,79.74
2018-07-31T23:30:14.538Z,80.03
2018-07-31T23:32:43.505Z,80.03
2018-07-31T23:35:12.377Z,79.93
2018-07-31T23:38:43.926Z,80.20
2018-07-31T23:41:12.606Z,80.39
2018-07-31T23:43:41.300Z,80.46
2018-07-31T23:46:10.072Z,80.48
2018-07-31T23:48:38.808Z,80.49
2018-07-31T23:51:07.478Z,80.53
2018-07-31T23:53:36.193Z,80.75
2018-07-31T23:56:04.947Z,80.86
2018-07-31T23:58:33.594Z,81.23
